sensor_id;sensor_type;location;lat;lon;timestamp;temperature;humidity
29413;DHT22;16389;50.126;8.450;2023-01-28T00:01:09;3.20;99.90
29413;DHT22;16389;50.126;8.450;2023-01-28T00:03:35;3.20;99.90
29413;DHT22;16389;50.126;8.450;2023-01-28T00:06:05;3.20;99.90
29413;DHT22;16389;50.126;8.450;2023-01-28T00:08:31;3.10;99.90
29413;DHT22;16389;50.126;8.450;2023-01-28T00:11:02;2.90;99.90
29413;DHT22;16389;50.126;8.450;2023-01-28T00:13:29;2.80;99.90
29413;DHT22;16389;50.126;8.450;2023-01-28T00:15:55;2.70;99.90
29413;DHT22;16389;50.126;8.450;2023-01-28T00:18:21;2.70;99.90
29413;DHT22;16389;50.126;8.450;2023-01-28T00:21:01;2.70;99.90
29413;DHT22;16389;50.126;8.450;2023-01-28T00:23:28;2.60;99.90
29413;DHT22;16389;50.126;8.450;2023-01-28T00:25:59;2.60;99.90
29413;DHT22;16389;50.126;8.450;2023-01-28T00:28:25;2.60;99.90
29413;DHT22;16389;50.126;8.450;2023-01-28T00:30:51;2.50;99.90
29413;DHT22;16389;50.126;8.450;2023-01-28T00:33:16;2.40;99.90
29413;DHT22;16389;50.126;8.450;2023-01-28T00:35:42;2.40;99.90
29413;DHT22;16389;50.126;8.450;2023-01-28T00:38:08;2.30;99.90
29413;DHT22;16389;50.126;8.450;2023-01-28T00:40:34;2.30;99.90
29413;DHT22;16389;50.126;8.450;2023-01-28T00:43:00;2.30;99.90
29413;DHT22;16389;50.126;8.450;2023-01-28T00:45:25;2.20;99.90
29413;DHT22;16389;50.126;8.450;2023-01-28T00:47:51;2.10;99.90
29413;DHT22;16389;50.126;8.450;2023-01-28T00:50:18;2.10;99.90
29413;DHT22;16389;50.126;8.450;2023-01-28T00:52:46;2.10;99.90
29413;DHT22;16389;50.126;8.450;2023-01-28T00:55:12;2.00;99.90
29413;DHT22;16389;50.126;8.450;2023-01-28T00:57:38;2.00;99.90
29413;DHT22;16389;50.126;8.450;2023-01-28T01:00:04;2.00;99.90
29413;DHT22;16389;50.126;8.450;2023-01-28T01:02:31;2.00;99.90
29413;DHT22;16389;50.126;8.450;2023-01-28T01:04:56;1.90;99.90
29413;DHT22;16389;50.126;8.450;2023-01-28T01:07:27;1.80;99.90
29413;DHT22;16389;50.126;8.450;2023-01-28T01:10:07;1.80;99.90
29413;DHT22;16389;50.126;8.450;2023-01-28T01:12:33;1.70;99.90
29413;DHT22;16389;50.126;8.450;2023-01-28T01:14:59;1.70;99.90
29413;DHT22;16389;50.126;8.450;2023-01-28T01:17:24;1.70;99.90
29413;DHT22;16389;50.126;8.450;2023-01-28T01:19:50;1.70;99.90
29413;DHT22;16389;50.126;8.450;2023-01-28T01:22:16;1.70;99.90
29413;DHT22;16389;50.126;8.450;2023-01-28T01:24:41;1.60;99.90
29413;DHT22;16389;50.126;8.450;2023-01-28T01:27:07;1.60;99.90
29413;DHT22;16389;50.126;8.450;2023-01-28T01:29:32;1.60;99.90
29413;DHT22;16389;50.126;8.450;2023-01-28T01:31:59;1.70;99.90
29413;DHT22;16389;50.126;8.450;2023-01-28T01:34:25;1.70;99.90
29413;DHT22;16389;50.126;8.450;2023-01-28T01:36:50;1.70;99.90
29413;DHT22;16389;50.126;8.450;2023-01-28T01:39:16;1.70;99.90
29413;DHT22;16389;50.126;8.450;2023-01-28T01:41:42;1.80;99.90
29413;DHT22;16389;50.126;8.450;2023-01-28T01:44:46;1.80;99.90
29413;DHT22;16389;50.126;8.450;2023-01-28T01:47:17;1.80;99.90
29413;DHT22;16389;50.126;8.450;2023-01-28T01:49:43;1.80;99.90
29413;DHT22;16389;50.126;8.450;2023-01-28T01:52:17;1.80;99.90
29413;DHT22;16389;50.126;8.450;2023-01-28T01:54:50;1.80;99.90
29413;DHT22;16389;50.126;8.450;2023-01-28T01:57:21;1.80;99.90
29413;DHT22;16389;50.126;8.450;2023-01-28T01:59:48;1.90;99.90
29413;DHT22;16389;50.126;8.450;2023-01-28T02:02:14;2.00;99.90
29413;DHT22;16389;50.126;8.450;2023-01-28T02:04:42;2.00;99.90
29413;DHT22;16389;50.126;8.450;2023-01-28T02:07:10;2.20;99.90
29413;DHT22;16389;50.126;8.450;2023-01-28T02:09:37;2.30;99.90
29413;DHT22;16389;50.126;8.450;2023-01-28T02:12:07;2.40;99.90
29413;DHT22;16389;50.126;8.450;2023-01-28T02:14:37;2.50;99.90
29413;DHT22;16389;50.126;8.450;2023-01-28T02:17:04;2.50;99.90
29413;DHT22;16389;50.126;8.450;2023-01-28T02:20:01;2.60;99.90
29413;DHT22;16389;50.126;8.450;2023-01-28T02:22:33;2.60;99.90
29413;DHT22;16389;50.126;8.450;2023-01-28T02:30:21;2.70;99.90
29413;DHT22;16389;50.126;8.450;2023-01-28T02:32:53;2.70;99.90
29413;DHT22;16389;50.126;8.450;2023-01-28T02:38:25;2.80;99.90
29413;DHT22;16389;50.126;8.450;2023-01-28T02:41:00;2.80;99.90
29413;DHT22;16389;50.126;8.450;2023-01-28T02:43:35;2.70;99.90
29413;DHT22;16389;50.126;8.450;2023-01-28T02:46:15;2.70;99.90
29413;DHT22;16389;50.126;8.450;2023-01-28T02:49:02;2.80;99.90
29413;DHT22;16389;50.126;8.450;2023-01-28T02:51:42;2.70;99.90
29413;DHT22;16389;50.126;8.450;2023-01-28T02:54:41;2.70;99.90
29413;DHT22;16389;50.126;8.450;2023-01-28T03:00:01;2.70;99.90
29413;DHT22;16389;50.126;8.450;2023-01-28T03:05:26;2.60;99.90
29413;DHT22;16389;50.126;8.450;2023-01-28T03:07:53;2.70;99.90
29413;DHT22;16389;50.126;8.450;2023-01-28T03:10:21;2.70;99.90
29413;DHT22;16389;50.126;8.450;2023-01-28T03:12:51;2.80;99.90
29413;DHT22;16389;50.126;8.450;2023-01-28T03:15:45;2.80;99.90
29413;DHT22;16389;50.126;8.450;2023-01-28T03:18:44;2.90;99.90
29413;DHT22;16389;50.126;8.450;2023-01-28T03:21:33;2.90;99.90
29413;DHT22;16389;50.126;8.450;2023-01-28T03:24:27;2.90;99.90
29413;DHT22;16389;50.126;8.450;2023-01-28T03:27:33;2.90;99.90
29413;DHT22;16389;50.126;8.450;2023-01-28T03:30:32;2.90;99.90
29413;DHT22;16389;50.126;8.450;2023-01-28T03:33:18;3.00;99.90
29413;DHT22;16389;50.126;8.450;2023-01-28T03:36:03;3.00;99.90
29413;DHT22;16389;50.126;8.450;2023-01-28T03:38:49;3.00;99.90
29413;DHT22;16389;50.126;8.450;2023-01-28T03:41:20;3.00;99.90
29413;DHT22;16389;50.126;8.450;2023-01-28T03:43:47;3.00;99.90
29413;DHT22;16389;50.126;8.450;2023-01-28T03:46:13;3.10;99.90
29413;DHT22;16389;50.126;8.450;2023-01-28T03:48:38;3.10;99.90
29413;DHT22;16389;50.126;8.450;2023-01-28T03:51:05;3.10;99.90
29413;DHT22;16389;50.126;8.450;2023-01-28T03:53:30;3.00;99.90
29413;DHT22;16389;50.126;8.450;2023-01-28T03:55:56;3.10;99.90
29413;DHT22;16389;50.126;8.450;2023-01-28T03:58:22;3.00;99.90
29413;DHT22;16389;50.126;8.450;2023-01-28T04:00:52;3.00;99.90
29413;DHT22;16389;50.126;8.450;2023-01-28T04:03:19;3.00;99.90
29413;DHT22;16389;50.126;8.450;2023-01-28T04:05:56;3.00;99.90
29413;DHT22;16389;50.126;8.450;2023-01-28T04:08:22;2.90;99.90
29413;DHT22;16389;50.126;8.450;2023-01-28T04:10:48;3.00;99.90
29413;DHT22;16389;50.126;8.450;2023-01-28T04:13:14;3.00;99.90
29413;DHT22;16389;50.126;8.450;2023-01-28T04:15:42;3.00;99.90
29413;DHT22;16389;50.126;8.450;2023-01-28T04:18:08;2.90;99.90
29413;DHT22;16389;50.126;8.450;2023-01-28T04:20:34;3.00;99.90
29413;DHT22;16389;50.126;8.450;2023-01-28T04:23:00;2.90;99.90
29413;DHT22;16389;50.126;8.450;2023-01-28T04:25:26;2.80;99.90
29413;DHT22;16389;50.126;8.450;2023-01-28T04:27:52;2.80;99.90
29413;DHT22;16389;50.126;8.450;2023-01-28T04:30:18;2.70;99.90
29413;DHT22;16389;50.126;8.450;2023-01-28T04:32:45;2.70;99.90
29413;DHT22;16389;50.126;8.450;2023-01-28T04:35:11;2.70;99.90
29413;DHT22;16389;50.126;8.450;2023-01-28T04:37:39;2.60;99.90
29413;DHT22;16389;50.126;8.450;2023-01-28T04:40:05;2.60;99.90
29413;DHT22;16389;50.126;8.450;2023-01-28T04:42:31;2.60;99.90
29413;DHT22;16389;50.126;8.450;2023-01-28T04:44:56;2.60;99.90
29413;DHT22;16389;50.126;8.450;2023-01-28T04:47:22;2.60;99.90
29413;DHT22;16389;50.126;8.450;2023-01-28T04:49:47;2.60;99.90
29413;DHT22;16389;50.126;8.450;2023-01-28T04:52:13;2.60;99.90
29413;DHT22;16389;50.126;8.450;2023-01-28T04:54:39;2.70;99.90
29413;DHT22;16389;50.126;8.450;2023-01-28T04:57:04;2.70;99.90
29413;DHT22;16389;50.126;8.450;2023-01-28T04:59:30;2.70;99.90
29413;DHT22;16389;50.126;8.450;2023-01-28T05:01:55;2.60;99.90
29413;DHT22;16389;50.126;8.450;2023-01-28T05:04:21;2.70;99.90
29413;DHT22;16389;50.126;8.450;2023-01-28T05:06:46;2.60;99.90
29413;DHT22;16389;50.126;8.450;2023-01-28T05:09:12;2.70;99.90
29413;DHT22;16389;50.126;8.450;2023-01-28T05:11:38;2.70;99.90
29413;DHT22;16389;50.126;8.450;2023-01-28T05:14:03;2.70;99.90
29413;DHT22;16389;50.126;8.450;2023-01-28T05:16:29;2.70;99.90
29413;DHT22;16389;50.126;8.450;2023-01-28T05:18:54;2.70;99.90
29413;DHT22;16389;50.126;8.450;2023-01-28T05:21:20;2.80;99.90
29413;DHT22;16389;50.126;8.450;2023-01-28T05:23:45;2.80;99.90
29413;DHT22;16389;50.126;8.450;2023-01-28T05:26:11;2.70;99.90
29413;DHT22;16389;50.126;8.450;2023-01-28T05:28:37;2.70;99.90
29413;DHT22;16389;50.126;8.450;2023-01-28T05:31:06;2.70;99.90
29413;DHT22;16389;50.126;8.450;2023-01-28T05:33:32;2.70;99.90
29413;DHT22;16389;50.126;8.450;2023-01-28T05:35:58;2.60;99.90
29413;DHT22;16389;50.126;8.450;2023-01-28T05:38:23;2.60;99.90
29413;DHT22;16389;50.126;8.450;2023-01-28T05:40:49;2.60;99.90
29413;DHT22;16389;50.126;8.450;2023-01-28T05:43:15;2.70;99.90
29413;DHT22;16389;50.126;8.450;2023-01-28T05:45:41;2.70;99.90
29413;DHT22;16389;50.126;8.450;2023-01-28T05:48:06;2.80;99.90
29413;DHT22;16389;50.126;8.450;2023-01-28T05:50:32;2.80;99.90
29413;DHT22;16389;50.126;8.450;2023-01-28T05:52:58;2.80;99.90
29413;DHT22;16389;50.126;8.450;2023-01-28T05:55:23;2.70;99.90
29413;DHT22;16389;50.126;8.450;2023-01-28T05:57:49;2.80;99.90
29413;DHT22;16389;50.126;8.450;2023-01-28T06:00:15;2.80;99.90
29413;DHT22;16389;50.126;8.450;2023-01-28T06:02:41;2.80;99.90
29413;DHT22;16389;50.126;8.450;2023-01-28T06:05:08;2.80;99.90
29413;DHT22;16389;50.126;8.450;2023-01-28T06:07:34;2.70;99.90
29413;DHT22;16389;50.126;8.450;2023-01-28T06:09:59;2.70;99.90
29413;DHT22;16389;50.126;8.450;2023-01-28T06:12:25;2.60;99.90
29413;DHT22;16389;50.126;8.450;2023-01-28T06:14:50;2.70;99.90
29413;DHT22;16389;50.126;8.450;2023-01-28T06:17:16;2.80;99.90
29413;DHT22;16389;50.126;8.450;2023-01-28T06:19:42;2.80;99.90
29413;DHT22;16389;50.126;8.450;2023-01-28T06:22:08;2.90;99.90
29413;DHT22;16389;50.126;8.450;2023-01-28T06:24:34;3.00;99.90
29413;DHT22;16389;50.126;8.450;2023-01-28T06:27:00;3.00;99.90
29413;DHT22;16389;50.126;8.450;2023-01-28T06:29:26;3.00;99.90
29413;DHT22;16389;50.126;8.450;2023-01-28T06:31:52;3.00;99.90
29413;DHT22;16389;50.126;8.450;2023-01-28T06:34:18;3.00;99.90
29413;DHT22;16389;50.126;8.450;2023-01-28T06:36:43;2.90;99.90
29413;DHT22;16389;50.126;8.450;2023-01-28T06:39:09;2.90;99.90
29413;DHT22;16389;50.126;8.450;2023-01-28T06:41:35;3.00;99.90
29413;DHT22;16389;50.126;8.450;2023-01-28T06:44:00;3.00;99.90
29413;DHT22;16389;50.126;8.450;2023-01-28T06:46:26;2.80;99.90
29413;DHT22;16389;50.126;8.450;2023-01-28T06:48:52;2.80;99.90
29413;DHT22;16389;50.126;8.450;2023-01-28T06:51:18;2.80;99.90
29413;DHT22;16389;50.126;8.450;2023-01-28T06:53:43;2.90;99.90
29413;DHT22;16389;50.126;8.450;2023-01-28T06:56:09;2.90;99.90
29413;DHT22;16389;50.126;8.450;2023-01-28T06:58:34;2.90;99.90
29413;DHT22;16389;50.126;8.450;2023-01-28T07:01:00;2.90;99.90
29413;DHT22;16389;50.126;8.450;2023-01-28T07:03:26;3.00;99.90
29413;DHT22;16389;50.126;8.450;2023-01-28T07:05:51;2.90;99.90
29413;DHT22;16389;50.126;8.450;2023-01-28T07:08:17;2.90;99.90
29413;DHT22;16389;50.126;8.450;2023-01-28T07:10:43;2.90;99.90
29413;DHT22;16389;50.126;8.450;2023-01-28T07:13:09;3.00;99.90
29413;DHT22;16389;50.126;8.450;2023-01-28T07:15:35;2.90;99.90
29413;DHT22;16389;50.126;8.450;2023-01-28T07:18:00;2.90;99.90
29413;DHT22;16389;50.126;8.450;2023-01-28T07:20:26;3.00;99.90
29413;DHT22;16389;50.126;8.450;2023-01-28T07:22:52;2.90;99.90
29413;DHT22;16389;50.126;8.450;2023-01-28T07:25:17;2.80;99.90
29413;DHT22;16389;50.126;8.450;2023-01-28T07:27:51;2.70;99.90
29413;DHT22;16389;50.126;8.450;2023-01-28T07:30:18;2.70;99.90
29413;DHT22;16389;50.126;8.450;2023-01-28T07:32:44;2.70;99.90
29413;DHT22;16389;50.126;8.450;2023-01-28T07:35:10;2.70;99.90
29413;DHT22;16389;50.126;8.450;2023-01-28T07:37:36;2.80;99.90
29413;DHT22;16389;50.126;8.450;2023-01-28T07:40:03;2.80;99.90
29413;DHT22;16389;50.126;8.450;2023-01-28T07:42:28;2.70;99.90
29413;DHT22;16389;50.126;8.450;2023-01-28T07:44:54;2.70;99.90
29413;DHT22;16389;50.126;8.450;2023-01-28T07:47:20;2.60;99.90
29413;DHT22;16389;50.126;8.450;2023-01-28T07:49:46;2.60;99.90
29413;DHT22;16389;50.126;8.450;2023-01-28T07:52:12;2.60;99.90
29413;DHT22;16389;50.126;8.450;2023-01-28T07:54:37;2.70;99.90
29413;DHT22;16389;50.126;8.450;2023-01-28T07:57:07;2.80;99.90
29413;DHT22;16389;50.126;8.450;2023-01-28T07:59:39;2.70;99.90
29413;DHT22;16389;50.126;8.450;2023-01-28T08:02:05;2.70;99.90
29413;DHT22;16389;50.126;8.450;2023-01-28T08:04:30;2.80;99.90
29413;DHT22;16389;50.126;8.450;2023-01-28T08:06:56;2.80;99.90
29413;DHT22;16389;50.126;8.450;2023-01-28T08:09:22;2.70;99.90
29413;DHT22;16389;50.126;8.450;2023-01-28T08:11:47;2.70;99.90
29413;DHT22;16389;50.126;8.450;2023-01-28T08:14:13;2.80;99.90
29413;DHT22;16389;50.126;8.450;2023-01-28T08:16:38;2.80;99.90
29413;DHT22;16389;50.126;8.450;2023-01-28T08:19:04;2.90;99.90
29413;DHT22;16389;50.126;8.450;2023-01-28T08:21:30;3.10;99.90
29413;DHT22;16389;50.126;8.450;2023-01-28T08:23:55;3.10;99.90
29413;DHT22;16389;50.126;8.450;2023-01-28T08:26:21;3.00;99.90
29413;DHT22;16389;50.126;8.450;2023-01-28T08:28:47;3.00;99.90
29413;DHT22;16389;50.126;8.450;2023-01-28T08:31:13;3.00;99.90
29413;DHT22;16389;50.126;8.450;2023-01-28T08:33:38;3.10;99.90
29413;DHT22;16389;50.126;8.450;2023-01-28T08:36:04;3.10;99.90
29413;DHT22;16389;50.126;8.450;2023-01-28T08:38:30;3.10;99.90
29413;DHT22;16389;50.126;8.450;2023-01-28T08:40:56;3.20;99.90
29413;DHT22;16389;50.126;8.450;2023-01-28T08:43:23;3.20;99.90
29413;DHT22;16389;50.126;8.450;2023-01-28T08:45:48;3.20;99.90
29413;DHT22;16389;50.126;8.450;2023-01-28T08:48:16;3.20;99.90
29413;DHT22;16389;50.126;8.450;2023-01-28T08:50:42;3.30;99.90
29413;DHT22;16389;50.126;8.450;2023-01-28T08:53:18;3.30;99.90
29413;DHT22;16389;50.126;8.450;2023-01-28T08:55:45;3.40;99.90
29413;DHT22;16389;50.126;8.450;2023-01-28T08:58:13;3.30;99.90
29413;DHT22;16389;50.126;8.450;2023-01-28T09:00:40;3.30;99.90
29413;DHT22;16389;50.126;8.450;2023-01-28T09:03:06;3.10;99.90
29413;DHT22;16389;50.126;8.450;2023-01-28T09:05:33;2.90;99.90
29413;DHT22;16389;50.126;8.450;2023-01-28T09:08:10;2.90;99.90
29413;DHT22;16389;50.126;8.450;2023-01-28T09:10:37;3.00;99.90
29413;DHT22;16389;50.126;8.450;2023-01-28T09:13:12;3.10;99.90
29413;DHT22;16389;50.126;8.450;2023-01-28T09:15:38;3.10;99.90
29413;DHT22;16389;50.126;8.450;2023-01-28T09:18:04;3.20;99.90
29413;DHT22;16389;50.126;8.450;2023-01-28T09:20:30;3.30;99.90
29413;DHT22;16389;50.126;8.450;2023-01-28T09:23:00;3.30;99.90
29413;DHT22;16389;50.126;8.450;2023-01-28T09:25:25;3.40;99.90
29413;DHT22;16389;50.126;8.450;2023-01-28T09:27:51;3.40;99.90
29413;DHT22;16389;50.126;8.450;2023-01-28T09:30:17;3.40;99.90
29413;DHT22;16389;50.126;8.450;2023-01-28T09:32:43;3.30;99.90
29413;DHT22;16389;50.126;8.450;2023-01-28T09:35:08;3.10;99.90
29413;DHT22;16389;50.126;8.450;2023-01-28T09:37:34;3.20;99.90
29413;DHT22;16389;50.126;8.450;2023-01-28T09:40:00;3.20;99.90
29413;DHT22;16389;50.126;8.450;2023-01-28T09:47:52;3.40;99.90
29413;DHT22;16389;50.126;8.450;2023-01-28T09:50:26;3.40;99.90
29413;DHT22;16389;50.126;8.450;2023-01-28T09:52:59;3.50;99.90
29413;DHT22;16389;50.126;8.450;2023-01-28T09:55:35;3.50;99.90
29413;DHT22;16389;50.126;8.450;2023-01-28T09:58:05;3.60;99.90
29413;DHT22;16389;50.126;8.450;2023-01-28T10:03:27;3.60;99.90
29413;DHT22;16389;50.126;8.450;2023-01-28T10:05:59;3.70;99.90
29413;DHT22;16389;50.126;8.450;2023-01-28T10:13:54;3.10;99.90
29413;DHT22;16389;50.126;8.450;2023-01-28T10:16:45;3.00;99.90
29413;DHT22;16389;50.126;8.450;2023-01-28T10:19:17;3.10;99.90
29413;DHT22;16389;50.126;8.450;2023-01-28T10:22:06;3.10;99.90
29413;DHT22;16389;50.126;8.450;2023-01-28T10:24:35;3.20;99.90
29413;DHT22;16389;50.126;8.450;2023-01-28T10:27:11;3.20;99.90
29413;DHT22;16389;50.126;8.450;2023-01-28T10:29:39;3.20;99.90
29413;DHT22;16389;50.126;8.450;2023-01-28T10:32:28;3.30;99.90
29413;DHT22;16389;50.126;8.450;2023-01-28T10:34:55;3.20;99.90
29413;DHT22;16389;50.126;8.450;2023-01-28T10:37:24;3.30;99.90
29413;DHT22;16389;50.126;8.450;2023-01-28T10:39:56;3.20;99.90
29413;DHT22;16389;50.126;8.450;2023-01-28T10:42:34;3.20;99.90
29413;DHT22;16389;50.126;8.450;2023-01-28T10:45:02;3.30;99.90
29413;DHT22;16389;50.126;8.450;2023-01-28T10:47:37;3.30;99.90
29413;DHT22;16389;50.126;8.450;2023-01-28T10:50:04;3.40;99.90
29413;DHT22;16389;50.126;8.450;2023-01-28T10:52:31;3.30;99.90
29413;DHT22;16389;50.126;8.450;2023-01-28T10:55:03;3.30;99.90
29413;DHT22;16389;50.126;8.450;2023-01-28T10:57:32;3.40;99.90
29413;DHT22;16389;50.126;8.450;2023-01-28T11:00:11;3.20;99.90
29413;DHT22;16389;50.126;8.450;2023-01-28T11:02:43;3.10;99.90
29413;DHT22;16389;50.126;8.450;2023-01-28T11:05:21;3.20;99.90
29413;DHT22;16389;50.126;8.450;2023-01-28T11:07:48;3.10;99.90
29413;DHT22;16389;50.126;8.450;2023-01-28T11:12:59;2.90;99.90
29413;DHT22;16389;50.126;8.450;2023-01-28T11:15:25;2.90;99.90
29413;DHT22;16389;50.126;8.450;2023-01-28T11:18:00;2.80;99.90
29413;DHT22;16389;50.126;8.450;2023-01-28T11:20:29;2.90;99.90
29413;DHT22;16389;50.126;8.450;2023-01-28T11:22:56;2.80;99.90
29413;DHT22;16389;50.126;8.450;2023-01-28T11:25:30;2.70;99.90
29413;DHT22;16389;50.126;8.450;2023-01-28T11:27:57;2.70;99.90
29413;DHT22;16389;50.126;8.450;2023-01-28T11:33:02;2.90;99.90
29413;DHT22;16389;50.126;8.450;2023-01-28T11:35:30;2.90;99.90
29413;DHT22;16389;50.126;8.450;2023-01-28T11:37:59;2.90;99.90
29413;DHT22;16389;50.126;8.450;2023-01-28T11:40:26;3.00;99.90
29413;DHT22;16389;50.126;8.450;2023-01-28T11:42:53;3.10;99.90
29413;DHT22;16389;50.126;8.450;2023-01-28T11:45:49;3.10;99.90
29413;DHT22;16389;50.126;8.450;2023-01-28T11:48:40;3.10;99.90
29413;DHT22;16389;50.126;8.450;2023-01-28T11:54:21;3.30;99.90
29413;DHT22;16389;50.126;8.450;2023-01-28T11:57:44;3.30;99.90
29413;DHT22;16389;50.126;8.450;2023-01-28T12:00:26;3.40;99.90
29413;DHT22;16389;50.126;8.450;2023-01-28T12:05:52;3.20;99.90
29413;DHT22;16389;50.126;8.450;2023-01-28T12:08:55;3.00;99.90
29413;DHT22;16389;50.126;8.450;2023-01-28T12:14:41;2.90;99.90
29413;DHT22;16389;50.126;8.450;2023-01-28T12:17:25;2.70;99.90
29413;DHT22;16389;50.126;8.450;2023-01-28T12:24:00;2.60;99.90
29413;DHT22;16389;50.126;8.450;2023-01-28T12:26:15;2.60;99.90
29413;DHT22;16389;50.126;8.450;2023-01-28T12:29:00;2.40;99.90
29413;DHT22;16389;50.126;8.450;2023-01-28T12:39:32;2.70;99.90
29413;DHT22;16389;50.126;8.450;2023-01-28T12:45:39;2.80;99.90
29413;DHT22;16389;50.126;8.450;2023-01-28T12:48:23;3.00;99.90
29413;DHT22;16389;50.126;8.450;2023-01-28T12:51:23;3.10;99.90
29413;DHT22;16389;50.126;8.450;2023-01-28T12:53:52;3.20;99.90
29413;DHT22;16389;50.126;8.450;2023-01-28T12:56:32;3.30;99.90
29413;DHT22;16389;50.126;8.450;2023-01-28T12:59:20;3.40;99.90
29413;DHT22;16389;50.126;8.450;2023-01-28T13:10:09;3.60;99.90
29413;DHT22;16389;50.126;8.450;2023-01-28T13:12:38;3.60;99.90
29413;DHT22;16389;50.126;8.450;2023-01-28T13:15:09;3.60;99.90
29413;DHT22;16389;50.126;8.450;2023-01-28T13:17:36;3.60;99.90
29413;DHT22;16389;50.126;8.450;2023-01-28T13:20:13;3.40;99.90
29413;DHT22;16389;50.126;8.450;2023-01-28T13:22:39;3.20;99.90
29413;DHT22;16389;50.126;8.450;2023-01-28T13:25:19;3.00;99.90
29413;DHT22;16389;50.126;8.450;2023-01-28T13:27:55;2.90;99.90
29413;DHT22;16389;50.126;8.450;2023-01-28T13:33:03;3.10;99.90
29413;DHT22;16389;50.126;8.450;2023-01-28T13:35:39;3.20;99.90
29413;DHT22;16389;50.126;8.450;2023-01-28T13:38:15;3.30;99.90
29413;DHT22;16389;50.126;8.450;2023-01-28T13:40:42;3.40;99.90
29413;DHT22;16389;50.126;8.450;2023-01-28T13:46:02;3.10;99.90
29413;DHT22;16389;50.126;8.450;2023-01-28T13:51:34;3.20;99.90
29413;DHT22;16389;50.126;8.450;2023-01-28T13:54:05;3.30;99.90
29413;DHT22;16389;50.126;8.450;2023-01-28T13:56:41;3.30;99.90
29413;DHT22;16389;50.126;8.450;2023-01-28T14:10:39;3.10;99.90
29413;DHT22;16389;50.126;8.450;2023-01-28T14:18:31;3.20;99.90
29413;DHT22;16389;50.126;8.450;2023-01-28T14:21:00;3.20;99.90
29413;DHT22;16389;50.126;8.450;2023-01-28T14:23:27;3.10;99.90
29413;DHT22;16389;50.126;8.450;2023-01-28T14:26:35;3.20;99.90
29413;DHT22;16389;50.126;8.450;2023-01-28T14:30:06;3.20;99.90
29413;DHT22;16389;50.126;8.450;2023-01-28T14:32:25;3.20;99.90
29413;DHT22;16389;50.126;8.450;2023-01-28T14:34:53;3.30;99.90
29413;DHT22;16389;50.126;8.450;2023-01-28T14:37:23;3.30;99.90
29413;DHT22;16389;50.126;8.450;2023-01-28T14:39:59;3.20;99.90
29413;DHT22;16389;50.126;8.450;2023-01-28T14:42:37;3.00;99.90
29413;DHT22;16389;50.126;8.450;2023-01-28T14:54:09;2.60;99.90
29413;DHT22;16389;50.126;8.450;2023-01-28T14:59:30;2.70;99.90
29413;DHT22;16389;50.126;8.450;2023-01-28T15:01:58;2.70;99.90
29413;DHT22;16389;50.126;8.450;2023-01-28T15:04:32;2.60;99.90
29413;DHT22;16389;50.126;8.450;2023-01-28T15:07:23;2.60;99.90
29413;DHT22;16389;50.126;8.450;2023-01-28T15:10:29;2.50;99.90
29413;DHT22;16389;50.126;8.450;2023-01-28T15:13:05;2.40;99.90
29413;DHT22;16389;50.126;8.450;2023-01-28T15:15:36;2.30;99.90
29413;DHT22;16389;50.126;8.450;2023-01-28T15:18:12;2.40;99.90
29413;DHT22;16389;50.126;8.450;2023-01-28T15:20:44;2.40;99.90
29413;DHT22;16389;50.126;8.450;2023-01-28T15:23:14;2.40;99.90
29413;DHT22;16389;50.126;8.450;2023-01-28T15:25:41;2.20;99.90
29413;DHT22;16389;50.126;8.450;2023-01-28T15:28:14;2.20;99.90
29413;DHT22;16389;50.126;8.450;2023-01-28T15:30:45;2.30;99.90
29413;DHT22;16389;50.126;8.450;2023-01-28T15:33:16;2.50;99.90
29413;DHT22;16389;50.126;8.450;2023-01-28T15:35:52;2.50;99.90
29413;DHT22;16389;50.126;8.450;2023-01-28T15:38:19;2.60;99.90
29413;DHT22;16389;50.126;8.450;2023-01-28T15:40:54;2.70;99.90
29413;DHT22;16389;50.126;8.450;2023-01-28T15:43:28;2.70;99.90
29413;DHT22;16389;50.126;8.450;2023-01-28T15:45:55;2.60;99.90
29413;DHT22;16389;50.126;8.450;2023-01-28T15:48:24;2.50;99.90
29413;DHT22;16389;50.126;8.450;2023-01-28T15:51:04;2.40;99.90
29413;DHT22;16389;50.126;8.450;2023-01-28T15:53:34;2.50;99.90
29413;DHT22;16389;50.126;8.450;2023-01-28T15:56:09;2.50;99.90
29413;DHT22;16389;50.126;8.450;2023-01-28T15:58:36;2.50;99.90
29413;DHT22;16389;50.126;8.450;2023-01-28T16:03:38;2.40;99.90
29413;DHT22;16389;50.126;8.450;2023-01-28T16:06:06;2.30;99.90
29413;DHT22;16389;50.126;8.450;2023-01-28T16:11:37;2.30;99.90
29413;DHT22;16389;50.126;8.450;2023-01-28T16:14:42;2.20;99.90
29413;DHT22;16389;50.126;8.450;2023-01-28T16:17:10;2.10;99.90
29413;DHT22;16389;50.126;8.450;2023-01-28T16:19:42;2.10;99.90
29413;DHT22;16389;50.126;8.450;2023-01-28T16:22:30;2.00;99.90
29413;DHT22;16389;50.126;8.450;2023-01-28T16:24:56;1.80;99.90
29413;DHT22;16389;50.126;8.450;2023-01-28T16:27:24;1.70;99.90
29413;DHT22;16389;50.126;8.450;2023-01-28T16:29:50;1.60;99.90
29413;DHT22;16389;50.126;8.450;2023-01-28T16:34:58;1.70;99.90
29413;DHT22;16389;50.126;8.450;2023-01-28T16:37:24;1.60;99.90
29413;DHT22;16389;50.126;8.450;2023-01-28T16:39:49;1.50;99.90
29413;DHT22;16389;50.126;8.450;2023-01-28T16:42:15;1.40;99.90
29413;DHT22;16389;50.126;8.450;2023-01-28T16:44:41;1.20;99.90
29413;DHT22;16389;50.126;8.450;2023-01-28T16:47:07;1.00;99.90
29413;DHT22;16389;50.126;8.450;2023-01-28T16:49:33;0.90;99.90
29413;DHT22;16389;50.126;8.450;2023-01-28T16:52:00;0.70;99.90
29413;DHT22;16389;50.126;8.450;2023-01-28T16:54:26;0.60;99.90
29413;DHT22;16389;50.126;8.450;2023-01-28T16:56:53;0.40;99.90
29413;DHT22;16389;50.126;8.450;2023-01-28T16:59:19;0.40;99.90
29413;DHT22;16389;50.126;8.450;2023-01-28T17:01:46;0.40;99.90
29413;DHT22;16389;50.126;8.450;2023-01-28T17:04:11;0.40;99.90
29413;DHT22;16389;50.126;8.450;2023-01-28T17:06:38;0.40;99.90
29413;DHT22;16389;50.126;8.450;2023-01-28T17:09:06;0.50;99.90
29413;DHT22;16389;50.126;8.450;2023-01-28T17:11:32;0.50;99.90
29413;DHT22;16389;50.126;8.450;2023-01-28T17:13:58;0.60;99.90
29413;DHT22;16389;50.126;8.450;2023-01-28T17:16:24;0.50;99.90
29413;DHT22;16389;50.126;8.450;2023-01-28T17:18:50;0.50;99.90
29413;DHT22;16389;50.126;8.450;2023-01-28T17:21:16;0.50;99.90
29413;DHT22;16389;50.126;8.450;2023-01-28T17:23:41;0.50;99.90
29413;DHT22;16389;50.126;8.450;2023-01-28T17:26:09;0.50;99.90
29413;DHT22;16389;50.126;8.450;2023-01-28T17:28:35;0.50;99.90
29413;DHT22;16389;50.126;8.450;2023-01-28T17:31:08;0.70;99.90
29413;DHT22;16389;50.126;8.450;2023-01-28T17:33:37;0.80;99.90
29413;DHT22;16389;50.126;8.450;2023-01-28T17:36:03;0.80;99.90
29413;DHT22;16389;50.126;8.450;2023-01-28T17:38:29;0.90;99.90
29413;DHT22;16389;50.126;8.450;2023-01-28T17:41:00;0.80;99.90
29413;DHT22;16389;50.126;8.450;2023-01-28T17:43:26;0.70;99.90
29413;DHT22;16389;50.126;8.450;2023-01-28T17:45:51;0.60;99.90
29413;DHT22;16389;50.126;8.450;2023-01-28T17:48:17;0.60;99.90
29413;DHT22;16389;50.126;8.450;2023-01-28T17:50:43;0.60;99.90
29413;DHT22;16389;50.126;8.450;2023-01-28T17:53:09;0.60;99.90
29413;DHT22;16389;50.126;8.450;2023-01-28T17:55:34;0.60;99.90